Time;durP1;ratioP1;P1;durP2;ratioP2;P2;SDS_P1;SDS_P2;PMS_P1;PMS_P2;Temp;Humidity;BMP_temperature;BMP_pressure;BME280_temperature;BME280_humidity;BME280_pressure;Samples;Min_cycle;Max_cycle;Signal;HPM_P1;HPM_P2
2022/09/01 00:00:48;;;;;;;;;;;29.00;91.90;;;;;;5104605;28;20149;-54
2022/09/01 00:03:15;;;;;;;;;;;29.00;91.70;;;;;;5104617;28;20231;-54
2022/09/01 00:05:42;;;;;;;;;;;28.90;91.50;;;;;;5105253;28;19912;-53
2022/09/01 00:08:08;;;;;;;;;;;28.90;91.60;;;;;;5104661;28;19904;-55
2022/09/01 00:10:34;;;;;;;;;;;28.90;91.70;;;;;;5104807;28;19922;-55
2022/09/01 00:13:01;;;;;;;;;;;28.90;91.80;;;;;;5104586;28;19915;-55
2022/09/01 00:15:27;;;;;;;;;;;28.90;92.30;;;;;;5104681;28;20026;-54
2022/09/01 00:17:53;;;;;;;;;;;28.80;92.80;;;;;;5104307;28;19908;-54
2022/09/01 00:20:19;;;;;;;;;;;28.80;93.20;;;;;;5104660;28;19979;-53
2022/09/01 00:22:46;;;;;;;;;;;28.70;93.30;;;;;;5104415;28;19931;-55
2022/09/01 00:25:12;;;;;;;;;;;28.70;92.90;;;;;;5104511;28;19934;-54
2022/09/01 00:27:38;;;;;;;;;;;28.70;93.00;;;;;;5104542;28;19950;-53
2022/09/01 00:30:05;;;;;;;;;;;28.70;93.40;;;;;;5104454;28;20143;-55
2022/09/01 00:32:31;;;;;;;;;;;28.70;93.60;;;;;;5104144;28;19915;-59
2022/09/01 00:34:58;;;;;;;;;;;28.70;93.60;;;;;;5104617;28;20153;-55
2022/09/01 00:37:24;;;;;;;;;;;28.60;93.60;;;;;;5104228;28;19947;-53
2022/09/01 00:39:53;;;;;;;;;;;28.60;93.60;;;;;;5104345;28;19912;-58
2022/09/01 00:42:19;;;;;;;;;;;28.60;94.20;;;;;;5104356;28;19986;-55
2022/09/01 00:44:46;;;;;;;;;;;28.60;94.10;;;;;;5104338;28;19912;-53
2022/09/01 00:47:12;;;;;;;;;;;28.60;94.00;;;;;;5104044;28;19904;-55
2022/09/01 00:49:40;;;;;;;;;;;28.60;94.20;;;;;;5104181;28;19916;-53
2022/09/01 00:52:27;;;;;;;;;;;28.60;94.20;;;;;;5104197;28;19908;-53
2022/09/01 00:54:56;;;;;;;;;;;28.50;93.80;;;;;;5104394;28;19954;-55
2022/09/01 00:57:23;;;;;;;;;;;28.40;94.10;;;;;;5104195;28;20146;-56
2022/09/01 00:59:53;;;;;;;;;;;28.40;93.80;;;;;;5104147;28;19920;-55
2022/09/01 01:02:20;;;;;;;;;;;28.40;94.10;;;;;;5103911;28;19950;-53
2022/09/01 01:04:46;;;;;;;;;;;28.40;94.00;;;;;;5104165;28;19912;-54
2022/09/01 01:07:14;;;;;;;;;;;28.40;93.80;;;;;;5103778;28;19908;-55
2022/09/01 01:09:43;;;;;;;;;;;28.30;93.80;;;;;;5104091;28;20236;-56
2022/09/01 01:12:17;;;;;;;;;;;28.20;93.60;;;;;;5107787;28;19909;-56
2022/09/01 01:14:44;;;;;;;;;;;28.20;93.60;;;;;;5099708;28;19917;-53
2022/09/01 01:17:11;;;;;;;;;;;28.20;93.50;;;;;;5087554;28;19909;-60
2022/09/01 01:25:11;;;;;;;;;;;28.20;93.40;;;;;;5087574;28;19920;-57
2022/09/01 01:27:42;;;;;;;;;;;28.20;93.30;;;;;;5087324;28;19916;-56
2022/09/01 01:30:09;;;;;;;;;;;28.20;93.40;;;;;;5087401;28;20104;-54
2022/09/01 01:32:37;;;;;;;;;;;28.10;93.40;;;;;;5087137;28;19968;-59
2022/09/01 01:35:04;;;;;;;;;;;28.10;93.40;;;;;;5087452;28;19913;-58
2022/09/01 01:37:33;;;;;;;;;;;28.10;93.30;;;;;;5087136;28;19916;-56
2022/09/01 01:39:59;;;;;;;;;;;28.10;93.40;;;;;;5087142;28;19913;-56
2022/09/01 01:42:27;;;;;;;;;;;28.10;93.40;;;;;;5087240;28;19939;-57
2022/09/01 01:44:54;;;;;;;;;;;28.00;93.50;;;;;;5087166;28;19912;-55
2022/09/01 01:47:20;;;;;;;;;;;28.00;93.50;;;;;;5086839;28;19908;-54
2022/09/01 01:49:46;;;;;;;;;;;28.00;93.50;;;;;;5086934;28;19988;-52
2022/09/01 01:52:16;;;;;;;;;;;28.00;93.60;;;;;;5086792;28;20193;-58
2022/09/01 01:54:45;;;;;;;;;;;28.00;93.60;;;;;;5079213;28;19951;-54
2022/09/01 01:57:16;;;;;;;;;;;28.00;93.60;;;;;;5086712;28;19909;-56
2022/09/01 01:59:43;;;;;;;;;;;28.00;93.60;;;;;;5086862;28;19913;-55
2022/09/01 02:02:11;;;;;;;;;;;28.00;93.50;;;;;;5086583;28;19908;-55
2022/09/01 02:04:39;;;;;;;;;;;28.00;93.50;;;;;;5086784;28;19912;-56
2022/09/01 02:07:09;;;;;;;;;;;28.00;93.50;;;;;;5086723;28;20197;-58
2022/09/01 02:09:38;;;;;;;;;;;27.90;93.60;;;;;;5079916;28;19925;-55
2022/09/01 02:12:06;;;;;;;;;;;27.90;93.50;;;;;;5085409;28;19915;-54
2022/09/01 02:14:32;;;;;;;;;;;27.90;93.50;;;;;;5092924;28;19923;-57
2022/09/01 02:17:06;;;;;;;;;;;27.90;93.50;;;;;;5106749;28;20211;-57
2022/09/01 02:19:35;;;;;;;;;;;27.90;93.40;;;;;;5106936;28;19930;-55
2022/09/01 02:22:01;;;;;;;;;;;27.90;93.50;;;;;;5105319;28;19915;-55
2022/09/01 02:24:30;;;;;;;;;;;27.80;93.50;;;;;;5106890;28;19919;-57
2022/09/01 02:26:59;;;;;;;;;;;27.80;93.60;;;;;;5106527;28;19908;-53
2022/09/01 02:29:27;;;;;;;;;;;27.80;93.50;;;;;;5106287;28;19912;-53
2022/09/01 02:31:54;;;;;;;;;;;27.80;93.50;;;;;;5088760;28;19975;-54
2022/09/01 02:34:22;;;;;;;;;;;27.80;93.60;;;;;;5106695;28;19919;-53
2022/09/01 02:36:51;;;;;;;;;;;27.80;93.50;;;;;;5106228;28;20180;-57
2022/09/01 02:39:19;;;;;;;;;;;27.80;93.60;;;;;;5106389;28;19919;-55
2022/09/01 02:41:45;;;;;;;;;;;27.80;93.50;;;;;;5106326;28;19926;-55
2022/09/01 02:44:11;;;;;;;;;;;27.80;93.50;;;;;;5105939;28;19919;-55
2022/09/01 02:46:40;;;;;;;;;;;27.70;93.50;;;;;;5106228;28;19915;-55
2022/09/01 02:49:14;;;;;;;;;;;27.70;93.50;;;;;;5106327;28;19904;-54
2022/09/01 02:51:42;;;;;;;;;;;27.70;93.40;;;;;;5106049;28;19920;-55
2022/09/01 02:54:08;;;;;;;;;;;27.70;93.40;;;;;;5105921;28;19912;-57
2022/09/01 02:56:34;;;;;;;;;;;27.70;93.50;;;;;;5106136;28;19914;-56
2022/09/01 02:59:01;;;;;;;;;;;27.70;93.50;;;;;;5105951;28;19904;-54
2022/09/01 03:01:29;;;;;;;;;;;27.70;93.50;;;;;;5105861;28;19908;-59
2022/09/01 03:03:57;;;;;;;;;;;27.70;93.40;;;;;;5105801;28;19940;-56
2022/09/01 03:06:24;;;;;;;;;;;27.70;93.40;;;;;;5105821;28;20127;-54
2022/09/01 03:08:51;;;;;;;;;;;27.70;93.50;;;;;;5105541;28;19985;-57
2022/09/01 03:11:17;;;;;;;;;;;27.70;93.50;;;;;;5105630;28;20196;-56
2022/09/01 03:13:44;;;;;;;;;;;27.60;93.40;;;;;;5105820;28;19912;-55
2022/09/01 03:16:12;;;;;;;;;;;27.60;93.40;;;;;;5106056;28;19953;-55
2022/09/01 03:18:39;;;;;;;;;;;27.60;93.40;;;;;;5105672;28;19915;-54
2022/09/01 03:21:07;;;;;;;;;;;27.60;93.40;;;;;;5105985;28;19979;-57
2022/09/01 03:23:33;;;;;;;;;;;27.60;93.40;;;;;;5105641;28;19909;-56
2022/09/01 03:26:00;;;;;;;;;;;27.60;93.40;;;;;;5105875;28;20181;-55
2022/09/01 03:28:26;;;;;;;;;;;27.60;93.40;;;;;;5105309;28;19904;-55
2022/09/01 03:30:54;;;;;;;;;;;27.60;93.50;;;;;;5105753;28;19927;-58
2022/09/01 03:33:21;;;;;;;;;;;27.50;93.60;;;;;;5104821;28;19904;-54
2022/09/01 03:35:47;;;;;;;;;;;27.50;93.60;;;;;;5105656;28;19908;-56
2022/09/01 03:38:20;;;;;;;;;;;27.50;93.70;;;;;;5105257;28;19908;-53
2022/09/01 03:40:48;;;;;;;;;;;27.50;93.80;;;;;;5105417;28;19957;-55
2022/09/01 03:43:15;;;;;;;;;;;27.50;93.60;;;;;;5105404;28;19943;-56
2022/09/01 03:45:42;;;;;;;;;;;27.50;93.60;;;;;;5105445;28;19949;-54
2022/09/01 03:48:08;;;;;;;;;;;27.50;93.70;;;;;;5105074;28;20254;-53
2022/09/01 03:50:39;;;;;;;;;;;27.50;93.80;;;;;;5105367;28;19916;-52
2022/09/01 03:53:08;;;;;;;;;;;27.50;93.80;;;;;;5104961;28;20100;-54
2022/09/01 03:55:36;;;;;;;;;;;27.50;93.70;;;;;;5105091;28;19919;-52
2022/09/01 03:58:06;;;;;;;;;;;27.50;93.60;;;;;;5105059;28;19911;-54
2022/09/01 04:00:34;;;;;;;;;;;27.50;93.70;;;;;;5105257;28;20211;-52
2022/09/01 04:03:02;;;;;;;;;;;27.50;93.60;;;;;;5104562;28;20215;-53
2022/09/01 04:05:29;;;;;;;;;;;27.40;93.50;;;;;;5105167;28;20136;-54
2022/09/01 04:07:56;;;;;;;;;;;27.40;93.50;;;;;;5104738;28;19908;-52
2022/09/01 04:10:23;;;;;;;;;;;27.40;93.50;;;;;;5104896;28;20074;-55
2022/09/01 04:12:50;;;;;;;;;;;27.40;93.60;;;;;;5104659;28;19908;-58
2022/09/01 04:15:17;;;;;;;;;;;27.40;93.60;;;;;;5104746;28;19916;-53
2022/09/01 04:20:28;;;;;;;;;;;27.40;93.60;;;;;;5104953;28;19927;-55
2022/09/01 04:22:56;;;;;;;;;;;27.40;93.60;;;;;;5104468;28;19954;-54
2022/09/01 04:25:24;;;;;;;;;;;27.30;93.50;;;;;;5104832;28;20109;-53
2022/09/01 04:27:51;;;;;;;;;;;27.40;93.60;;;;;;5104382;28;19908;-55
2022/09/01 04:30:17;;;;;;;;;;;27.30;93.60;;;;;;5104534;28;19917;-53
2022/09/01 04:32:45;;;;;;;;;;;27.30;93.60;;;;;;5104464;28;20041;-53
2022/09/01 04:35:15;;;;;;;;;;;27.30;93.60;;;;;;5104661;28;19919;-52
2022/09/01 04:37:42;;;;;;;;;;;27.30;93.70;;;;;;5104524;28;20096;-58
2022/09/01 04:40:08;;;;;;;;;;;27.30;93.80;;;;;;5104628;28;19908;-54
2022/09/01 04:42:35;;;;;;;;;;;27.30;93.70;;;;;;5104294;28;20139;-57
2022/09/01 04:45:01;;;;;;;;;;;27.20;93.80;;;;;;5104852;28;19934;-54
2022/09/01 04:47:30;;;;;;;;;;;27.20;93.80;;;;;;5108790;28;19934;-54
2022/09/01 04:49:59;;;;;;;;;;;27.20;93.80;;;;;;5108744;28;19912;-55
2022/09/01 04:52:26;;;;;;;;;;;27.20;93.80;;;;;;5108266;28;20201;-52
2022/09/01 04:54:53;;;;;;;;;;;27.20;93.80;;;;;;5108688;28;20092;-53
2022/09/01 04:57:20;;;;;;;;;;;27.20;93.80;;;;;;5108361;28;19954;-54
2022/09/01 04:59:46;;;;;;;;;;;27.20;93.90;;;;;;5108454;28;19988;-53
2022/09/01 05:02:12;;;;;;;;;;;27.20;93.90;;;;;;5108229;28;20197;-54
2022/09/01 05:04:40;;;;;;;;;;;27.20;93.80;;;;;;5108312;28;19978;-56
2022/09/01 05:07:07;;;;;;;;;;;27.20;93.90;;;;;;5090049;28;19908;-53
2022/09/01 05:09:37;;;;;;;;;;;27.20;93.90;;;;;;5108265;28;19928;-54
2022/09/01 05:12:10;;;;;;;;;;;27.20;93.90;;;;;;5107988;28;20240;-55
2022/09/01 05:14:41;;;;;;;;;;;27.20;94.00;;;;;;5107793;28;19916;-53
2022/09/01 05:17:11;;;;;;;;;;;27.20;94.00;;;;;;5107937;28;19915;-56
2022/09/01 05:19:46;;;;;;;;;;;27.20;94.00;;;;;;5108040;28;19912;-53
2022/09/01 05:22:15;;;;;;;;;;;27.20;94.00;;;;;;5107830;28;19920;-56
2022/09/01 05:24:41;;;;;;;;;;;27.10;94.00;;;;;;5107934;28;19935;-59
2022/09/01 05:27:09;;;;;;;;;;;27.10;94.00;;;;;;5107836;28;19950;-50
2022/09/01 05:29:36;;;;;;;;;;;27.10;94.10;;;;;;5107823;28;19965;-54
2022/09/01 05:32:08;;;;;;;;;;;27.10;94.00;;;;;;5107892;28;19904;-54
2022/09/01 05:34:37;;;;;;;;;;;27.10;94.10;;;;;;5107633;28;19915;-56
2022/09/01 05:37:05;;;;;;;;;;;27.10;94.10;;;;;;5107658;28;19954;-52
2022/09/01 05:39:31;;;;;;;;;;;27.10;94.00;;;;;;5107765;28;19912;-58
2022/09/01 05:41:58;;;;;;;;;;;27.10;94.00;;;;;;5107494;28;19954;-55
2022/09/01 05:44:24;;;;;;;;;;;27.10;93.80;;;;;;5107519;28;19912;-55
2022/09/01 05:46:52;;;;;;;;;;;27.10;93.80;;;;;;5107395;28;19915;-52
2022/09/01 05:49:18;;;;;;;;;;;27.10;93.70;;;;;;5107376;28;20105;-56
2022/09/01 05:51:48;;;;;;;;;;;27.00;93.60;;;;;;5107337;28;20219;-52
2022/09/01 05:54:15;;;;;;;;;;;27.00;93.60;;;;;;5107243;28;19947;-54
2022/09/01 05:56:42;;;;;;;;;;;27.00;93.40;;;;;;5106990;28;20212;-56
2022/09/01 05:59:09;;;;;;;;;;;27.00;93.50;;;;;;5107374;28;20100;-52
2022/09/01 06:01:40;;;;;;;;;;;27.00;93.40;;;;;;5107030;28;19904;-55
2022/09/01 06:04:07;;;;;;;;;;;27.00;93.40;;;;;;5107126;28;19915;-54
2022/09/01 06:06:48;;;;;;;;;;;27.00;93.40;;;;;;5107039;28;19908;-52
2022/09/01 06:09:16;;;;;;;;;;;27.00;93.50;;;;;;5106843;28;19979;-52
2022/09/01 06:11:45;;;;;;;;;;;27.00;93.40;;;;;;5106858;28;19912;-55
2022/09/01 06:14:15;;;;;;;;;;;27.00;93.50;;;;;;5106702;28;20185;-54
2022/09/01 06:16:42;;;;;;;;;;;26.90;93.30;;;;;;5106613;28;19909;-56
2022/09/01 06:19:11;;;;;;;;;;;26.90;93.40;;;;;;5106066;28;20213;-53
2022/09/01 06:21:38;;;;;;;;;;;26.90;93.40;;;;;;5106713;28;19908;-56
2022/09/01 06:24:05;;;;;;;;;;;26.90;93.40;;;;;;5106529;28;19904;-54
2022/09/01 06:26:33;;;;;;;;;;;26.90;93.30;;;;;;5106660;28;19912;-53
2022/09/01 06:29:02;;;;;;;;;;;26.90;93.20;;;;;;5106640;28;19908;-52
2022/09/01 06:31:32;;;;;;;;;;;26.90;93.10;;;;;;5106625;28;19958;-53
2022/09/01 06:34:00;;;;;;;;;;;26.90;93.10;;;;;;5106425;28;20095;-54
2022/09/01 06:36:29;;;;;;;;;;;26.90;93.10;;;;;;5106407;28;19908;-52
2022/09/01 06:38:55;;;;;;;;;;;26.90;93.00;;;;;;5106216;28;19915;-54
2022/09/01 06:41:22;;;;;;;;;;;26.90;93.00;;;;;;5106486;28;19908;-51
2022/09/01 06:43:49;;;;;;;;;;;26.90;93.00;;;;;;5106250;28;19904;-50
2022/09/01 06:46:16;;;;;;;;;;;26.80;92.90;;;;;;5106204;28;20164;-53
2022/09/01 06:48:45;;;;;;;;;;;26.80;93.10;;;;;;5106180;28;19904;-56
2022/09/01 06:51:13;;;;;;;;;;;26.80;92.90;;;;;;5106666;28;19916;-54
2022/09/01 06:53:40;;;;;;;;;;;26.80;92.80;;;;;;5105945;28;19912;-52
2022/09/01 06:56:08;;;;;;;;;;;26.80;92.90;;;;;;5106649;28;20132;-53
2022/09/01 06:58:34;;;;;;;;;;;26.70;92.80;;;;;;5106044;28;20208;-54
2022/09/01 07:01:05;;;;;;;;;;;26.80;92.90;;;;;;5106174;28;19997;-57
2022/09/01 07:03:31;;;;;;;;;;;26.70;92.70;;;;;;5105862;28;20104;-58
2022/09/01 07:05:58;;;;;;;;;;;26.70;92.80;;;;;;5106316;28;19912;-53
2022/09/01 07:08:24;;;;;;;;;;;26.70;92.70;;;;;;5105174;28;19915;-53
2022/09/01 07:10:54;;;;;;;;;;;26.70;92.70;;;;;;5106231;28;19912;-52
2022/09/01 07:13:24;;;;;;;;;;;26.70;92.80;;;;;;5105690;28;19916;-53
2022/09/01 07:15:51;;;;;;;;;;;26.70;93.10;;;;;;5105979;28;19928;-53
2022/09/01 07:18:20;;;;;;;;;;;26.70;92.90;;;;;;5105632;28;19943;-58
2022/09/01 07:20:47;;;;;;;;;;;26.60;92.90;;;;;;5105976;28;19908;-52
2022/09/01 07:23:15;;;;;;;;;;;26.60;92.90;;;;;;5105544;28;19923;-54
2022/09/01 07:25:43;;;;;;;;;;;26.60;93.00;;;;;;5105881;28;19912;-54
2022/09/01 07:28:11;;;;;;;;;;;26.60;93.00;;;;;;5105423;28;19908;-51
2022/09/01 07:30:47;;;;;;;;;;;26.60;93.10;;;;;;5105773;28;19931;-52
2022/09/01 07:33:14;;;;;;;;;;;26.60;93.10;;;;;;5105392;28;20239;-53
2022/09/01 07:35:41;;;;;;;;;;;26.60;93.00;;;;;;5105514;28;19912;-53
2022/09/01 07:38:08;;;;;;;;;;;26.60;93.10;;;;;;5105283;28;19912;-55
2022/09/01 07:40:39;;;;;;;;;;;26.60;93.20;;;;;;5105545;28;19912;-54
2022/09/01 07:43:18;;;;;;;;;;;26.60;93.30;;;;;;5105082;28;19908;-53
2022/09/01 07:45:47;;;;;;;;;;;26.60;93.30;;;;;;5105716;28;19943;-53
2022/09/01 07:48:18;;;;;;;;;;;26.60;93.40;;;;;;5104903;28;19971;-51
2022/09/01 07:50:46;;;;;;;;;;;26.60;93.40;;;;;;5105348;28;19923;-54
2022/09/01 07:53:17;;;;;;;;;;;26.60;93.50;;;;;;5104948;28;19944;-53
2022/09/01 07:55:46;;;;;;;;;;;26.60;93.50;;;;;;5105208;28;19908;-53
2022/09/01 07:58:13;;;;;;;;;;;26.60;93.60;;;;;;5105143;28;20039;-58
2022/09/01 08:00:42;;;;;;;;;;;26.60;93.60;;;;;;5105294;28;19912;-54
2022/09/01 08:03:08;;;;;;;;;;;26.50;93.60;;;;;;5104664;28;19974;-53
2022/09/01 08:05:34;;;;;;;;;;;26.50;93.70;;;;;;5105123;28;19957;-53
2022/09/01 08:08:00;;;;;;;;;;;26.50;93.80;;;;;;5104713;28;19904;-55
2022/09/01 08:10:26;;;;;;;;;;;26.50;93.80;;;;;;5104934;28;20096;-53
2022/09/01 08:12:53;;;;;;;;;;;26.50;93.80;;;;;;5104891;28;20143;-58
2022/09/01 08:15:19;;;;;;;;;;;26.50;93.80;;;;;;5104829;28;20200;-52
2022/09/01 08:17:45;;;;;;;;;;;26.50;93.70;;;;;;5104820;28;19904;-53
2022/09/01 08:20:11;;;;;;;;;;;26.50;93.80;;;;;;5104081;28;19912;-54
2022/09/01 08:22:38;;;;;;;;;;;26.50;93.80;;;;;;5104594;28;19910;-56
2022/09/01 08:25:06;;;;;;;;;;;26.50;93.80;;;;;;5104686;28;20088;-54
2022/09/01 08:27:35;;;;;;;;;;;26.40;93.70;;;;;;5104664;28;19915;-54
2022/09/01 08:30:03;;;;;;;;;;;26.40;93.90;;;;;;5104627;28;19962;-57
2022/09/01 08:32:31;;;;;;;;;;;26.40;93.80;;;;;;5104426;28;20077;-53
2022/09/01 08:34:57;;;;;;;;;;;26.40;93.80;;;;;;5104625;28;20175;-56
2022/09/01 08:37:24;;;;;;;;;;;26.40;93.80;;;;;;5104556;28;19908;-58
2022/09/01 08:39:51;;;;;;;;;;;26.40;93.70;;;;;;5104397;28;20135;-54
2022/09/01 08:42:22;;;;;;;;;;;26.40;93.80;;;;;;5104402;28;19946;-54
2022/09/01 08:44:53;;;;;;;;;;;26.40;93.80;;;;;;5104536;28;20203;-54
2022/09/01 08:47:20;;;;;;;;;;;26.40;93.70;;;;;;5104086;28;19946;-54
2022/09/01 08:49:49;;;;;;;;;;;26.40;93.70;;;;;;5104301;28;19958;-53
2022/09/01 08:52:25;;;;;;;;;;;26.40;93.70;;;;;;5104163;28;19961;-52
2022/09/01 08:55:04;;;;;;;;;;;26.40;93.60;;;;;;5104454;28;20078;-54
2022/09/01 08:57:38;;;;;;;;;;;26.40;93.70;;;;;;5104126;28;19904;-53
2022/09/01 09:00:08;;;;;;;;;;;26.40;93.70;;;;;;5104321;28;19920;-53
2022/09/01 09:02:52;;;;;;;;;;;26.40;93.70;;;;;;5104035;28;19900;-53
2022/09/01 09:05:27;;;;;;;;;;;26.30;93.70;;;;;;5104282;28;19949;-55
2022/09/01 09:08:11;;;;;;;;;;;26.30;93.70;;;;;;5104001;28;19963;-54
2022/09/01 09:10:51;;;;;;;;;;;26.40;93.70;;;;;;5104438;28;19922;-57
2022/09/01 09:13:35;;;;;;;;;;;26.30;93.70;;;;;;5103924;28;19946;-52
2022/09/01 09:16:06;;;;;;;;;;;26.30;93.70;;;;;;5104336;28;20196;-55
2022/09/01 09:18:48;;;;;;;;;;;26.30;93.70;;;;;;5104016;28;19904;-56
2022/09/01 09:21:20;;;;;;;;;;;26.30;93.80;;;;;;5103902;28;20201;-53
2022/09/01 09:23:48;;;;;;;;;;;26.30;93.70;;;;;;5103863;28;19905;-53
2022/09/01 09:26:14;;;;;;;;;;;26.30;93.80;;;;;;5103721;28;19915;-53
2022/09/01 09:28:40;;;;;;;;;;;26.30;93.80;;;;;;5103951;28;19904;-53
2022/09/01 09:31:25;;;;;;;;;;;26.20;93.90;;;;;;5104851;28;19916;-54
2022/09/01 09:33:51;;;;;;;;;;;26.20;93.90;;;;;;5107404;28;20298;-55
2022/09/01 09:36:19;;;;;;;;;;;26.20;94.00;;;;;;5107638;28;19911;-54
2022/09/01 09:38:45;;;;;;;;;;;26.20;94.00;;;;;;5107279;28;19908;-54
2022/09/01 09:41:16;;;;;;;;;;;26.20;94.10;;;;;;5107865;28;19908;-52
2022/09/01 09:43:48;;;;;;;;;;;26.30;94.10;;;;;;5107353;28;19908;-55
2022/09/01 09:46:23;;;;;;;;;;;26.30;94.10;;;;;;5107198;28;19919;-53
2022/09/01 09:49:09;;;;;;;;;;;26.20;94.00;;;;;;5107166;28;19912;-53
2022/09/01 09:51:39;;;;;;;;;;;26.30;94.00;;;;;;5107441;28;19916;-54
2022/09/01 09:54:17;;;;;;;;;;;26.20;93.90;;;;;;5107091;28;19950;-55
2022/09/01 09:56:44;;;;;;;;;;;26.20;93.90;;;;;;5107022;28;19975;-55
2022/09/01 09:59:26;;;;;;;;;;;26.20;93.90;;;;;;5107100;28;19920;-54
2022/09/01 10:01:56;;;;;;;;;;;26.20;93.90;;;;;;5106839;28;20255;-55
2022/09/01 10:04:33;;;;;;;;;;;26.20;94.00;;;;;;5107144;28;19974;-60
2022/09/01 10:06:59;;;;;;;;;;;26.20;94.00;;;;;;5106942;28;19939;-52
2022/09/01 10:09:25;;;;;;;;;;;26.10;93.90;;;;;;5106707;28;19983;-54
2022/09/01 10:11:53;;;;;;;;;;;26.10;93.90;;;;;;5106803;28;19908;-54
2022/09/01 10:14:22;;;;;;;;;;;26.10;93.90;;;;;;5106907;28;19920;-52
2022/09/01 10:16:51;;;;;;;;;;;26.10;93.90;;;;;;5106630;28;20102;-54
2022/09/01 10:19:18;;;;;;;;;;;26.10;94.00;;;;;;5106636;28;19908;-56
2022/09/01 10:21:45;;;;;;;;;;;26.10;94.00;;;;;;5106415;28;20215;-51
2022/09/01 10:24:11;;;;;;;;;;;26.10;94.00;;;;;;5106297;28;19912;-53
2022/09/01 10:26:40;;;;;;;;;;;26.10;94.00;;;;;;5106354;28;20099;-52
2022/09/01 10:29:06;;;;;;;;;;;26.10;94.00;;;;;;5106449;28;20165;-52
2022/09/01 10:31:33;;;;;;;;;;;26.10;94.00;;;;;;5106057;28;19954;-54
2022/09/01 10:34:01;;;;;;;;;;;26.10;94.00;;;;;;5106221;28;19909;-52
2022/09/01 10:36:27;;;;;;;;;;;26.10;94.00;;;;;;5106222;28;19915;-55
2022/09/01 10:38:55;;;;;;;;;;;26.10;94.00;;;;;;5105968;28;19908;-56
2022/09/01 10:41:50;;;;;;;;;;;26.10;94.10;;;;;;5106043;28;19943;-57
2022/09/01 10:44:29;;;;;;;;;;;26.00;94.00;;;;;;5087974;28;20096;-55
2022/09/01 10:46:56;;;;;;;;;;;26.00;94.10;;;;;;5105904;28;19971;-56
2022/09/01 10:49:26;;;;;;;;;;;26.00;94.00;;;;;;5105757;28;20096;-55
2022/09/01 10:51:53;;;;;;;;;;;26.00;94.00;;;;;;5105785;28;19979;-57
2022/09/01 10:54:38;;;;;;;;;;;26.00;94.00;;;;;;5106058;28;19912;-58
2022/09/01 10:57:25;;;;;;;;;;;26.00;94.00;;;;;;5105783;28;20193;-54
2022/09/01 10:59:52;;;;;;;;;;;26.00;94.00;;;;;;5105645;28;19947;-54
2022/09/01 11:02:20;;;;;;;;;;;26.00;94.00;;;;;;5105578;28;19908;-54
2022/09/01 11:04:46;;;;;;;;;;;26.00;94.10;;;;;;5105749;28;19915;-55
2022/09/01 11:07:24;;;;;;;;;;;26.00;94.10;;;;;;5105374;28;19915;-57
2022/09/01 11:10:06;;;;;;;;;;;26.00;94.10;;;;;;5105702;28;19939;-56
2022/09/01 11:12:45;;;;;;;;;;;26.00;94.10;;;;;;5105544;28;19946;-60
2022/09/01 11:15:14;;;;;;;;;;;26.00;94.10;;;;;;5105853;28;19991;-55
2022/09/01 11:17:43;;;;;;;;;;;26.00;94.00;;;;;;5105565;28;19908;-57
2022/09/01 11:20:11;;;;;;;;;;;26.00;94.00;;;;;;5105895;28;19919;-55
2022/09/01 11:22:56;;;;;;;;;;;26.10;94.00;;;;;;5105708;28;19912;-56
2022/09/01 11:25:40;;;;;;;;;;;26.10;94.00;;;;;;5106094;28;19916;-55
2022/09/01 11:28:07;;;;;;;;;;;26.10;94.00;;;;;;5105459;28;19908;-53
2022/09/01 11:30:51;;;;;;;;;;;26.10;94.10;;;;;;5105605;28;19920;-57
2022/09/01 11:33:26;;;;;;;;;;;26.10;94.10;;;;;;5105322;28;19908;-57
2022/09/01 11:36:04;;;;;;;;;;;26.10;94.10;;;;;;5105895;28;19985;-57
2022/09/01 11:38:44;;;;;;;;;;;26.20;94.20;;;;;;5105392;28;20215;-56
2022/09/01 11:41:22;;;;;;;;;;;26.20;94.10;;;;;;5105803;28;19912;-60
2022/09/01 11:43:51;;;;;;;;;;;26.20;94.10;;;;;;5105088;28;19909;-56
2022/09/01 11:46:31;;;;;;;;;;;26.30;94.00;;;;;;5104951;28;19975;-55
2022/09/01 11:48:59;;;;;;;;;;;26.30;94.00;;;;;;5105043;28;20100;-58
2022/09/01 11:51:25;;;;;;;;;;;26.30;94.10;;;;;;5104934;28;19947;-56
2022/09/01 11:53:58;;;;;;;;;;;26.40;94.20;;;;;;5104772;28;19904;-60
2022/09/01 11:56:25;;;;;;;;;;;26.40;94.10;;;;;;5104843;28;20136;-54
2022/09/01 11:58:51;;;;;;;;;;;26.50;94.00;;;;;;5104657;28;20211;-55
2022/09/01 12:01:17;;;;;;;;;;;26.50;94.00;;;;;;5104817;28;20142;-54
2022/09/01 12:03:45;;;;;;;;;;;26.60;94.00;;;;;;5104789;28;20130;-57
2022/09/01 12:06:17;;;;;;;;;;;26.50;94.00;;;;;;5105122;28;19919;-54
2022/09/01 12:08:50;;;;;;;;;;;26.60;94.00;;;;;;5104855;28;19953;-55
2022/09/01 12:11:19;;;;;;;;;;;26.60;94.00;;;;;;5104649;28;19916;-50
2022/09/01 12:13:56;;;;;;;;;;;26.70;93.80;;;;;;5104648;28;19908;-56
2022/09/01 12:16:24;;;;;;;;;;;26.70;93.70;;;;;;5104573;28;19926;-56
2022/09/01 12:18:51;;;;;;;;;;;26.70;93.60;;;;;;5104273;28;19908;-55
2022/09/01 12:21:23;;;;;;;;;;;26.80;93.60;;;;;;5104873;28;20125;-55
2022/09/01 12:23:50;;;;;;;;;;;26.80;93.50;;;;;;5104434;28;19908;-56
2022/09/01 12:26:22;;;;;;;;;;;26.80;93.40;;;;;;5104412;28;20120;-56
2022/09/01 12:28:49;;;;;;;;;;;26.90;93.30;;;;;;5104391;28;19978;-55
2022/09/01 12:31:17;;;;;;;;;;;26.90;93.30;;;;;;5104334;28;19956;-54
2022/09/01 12:33:44;;;;;;;;;;;27.00;93.30;;;;;;5104590;28;20026;-56
2022/09/01 12:36:15;;;;;;;;;;;26.90;93.20;;;;;;5104748;28;19912;-59
2022/09/01 12:38:41;;;;;;;;;;;27.00;93.20;;;;;;5104273;28;19904;-53
2022/09/01 12:41:24;;;;;;;;;;;27.10;93.20;;;;;;5104836;28;19916;-54
2022/09/01 12:43:50;;;;;;;;;;;27.10;93.10;;;;;;5104330;28;19914;-54
2022/09/01 12:46:46;;;;;;;;;;;27.10;93.00;;;;;;5104037;28;20276;-53
2022/09/01 12:49:15;;;;;;;;;;;27.20;92.90;;;;;;5086763;28;19958;-56
2022/09/01 12:51:41;;;;;;;;;;;27.20;92.90;;;;;;5104186;28;19941;-54
2022/09/01 12:54:07;;;;;;;;;;;27.20;92.70;;;;;;5104520;28;19924;-54
2022/09/01 12:56:35;;;;;;;;;;;27.20;92.80;;;;;;5104152;28;19983;-55
2022/09/01 12:59:07;;;;;;;;;;;27.20;92.70;;;;;;5104208;28;19908;-54
2022/09/01 13:01:34;;;;;;;;;;;27.30;92.70;;;;;;5104038;28;20108;-57
2022/09/01 13:04:23;;;;;;;;;;;27.30;92.70;;;;;;5104075;28;19908;-58
2022/09/01 13:06:50;;;;;;;;;;;27.30;92.70;;;;;;5105862;28;19979;-57
2022/09/01 13:09:16;;;;;;;;;;;27.30;92.60;;;;;;5108262;28;19912;-60
2022/09/01 13:11:46;;;;;;;;;;;27.30;92.60;;;;;;5108099;28;19915;-58
2022/09/01 13:14:13;;;;;;;;;;;27.30;92.60;;;;;;5107772;28;19916;-58
2022/09/01 13:16:39;;;;;;;;;;;27.40;92.50;;;;;;5107853;28;19975;-56
2022/09/01 13:19:05;;;;;;;;;;;27.40;92.50;;;;;;5107960;28;19908;-54
2022/09/01 13:21:33;;;;;;;;;;;27.40;92.10;;;;;;5107969;28;20223;-54
2022/09/01 13:24:00;;;;;;;;;;;27.40;92.30;;;;;;5107663;28;19908;-55
2022/09/01 13:26:30;;;;;;;;;;;27.40;92.30;;;;;;5107974;28;20082;-56
2022/09/01 13:28:56;;;;;;;;;;;27.50;92.40;;;;;;5107700;28;19903;-55
2022/09/01 13:31:22;;;;;;;;;;;27.50;92.50;;;;;;5107609;28;19988;-55
2022/09/01 13:33:48;;;;;;;;;;;27.50;92.10;;;;;;5107700;28;19905;-60
2022/09/01 13:36:15;;;;;;;;;;;27.60;92.30;;;;;;5107681;28;19908;-58
2022/09/01 13:38:41;;;;;;;;;;;27.50;92.30;;;;;;5107336;28;19915;-57
2022/09/01 13:41:09;;;;;;;;;;;27.60;92.30;;;;;;5108106;28;19979;-59
2022/09/01 13:43:36;;;;;;;;;;;27.50;92.20;;;;;;5107441;28;19912;-55
2022/09/01 13:46:02;;;;;;;;;;;27.60;92.20;;;;;;5107828;28;19912;-58
2022/09/01 13:48:28;;;;;;;;;;;27.60;92.40;;;;;;5107387;28;19979;-56
2022/09/01 13:50:54;;;;;;;;;;;27.60;92.20;;;;;;5107765;28;19962;-54
2022/09/01 13:53:21;;;;;;;;;;;27.60;92.10;;;;;;5107306;28;19912;-52
2022/09/01 13:55:48;;;;;;;;;;;27.60;91.90;;;;;;5107617;28;19920;-54
2022/09/01 13:58:14;;;;;;;;;;;27.60;92.10;;;;;;5107145;28;19907;-55
2022/09/01 14:00:42;;;;;;;;;;;27.70;92.20;;;;;;5107524;28;19912;-58
2022/09/01 14:03:13;;;;;;;;;;;27.70;92.30;;;;;;5107314;28;19936;-54
2022/09/01 14:05:40;;;;;;;;;;;27.70;92.30;;;;;;5107524;28;19913;-53
2022/09/01 14:08:08;;;;;;;;;;;27.70;92.20;;;;;;5106941;28;20192;-55
2022/09/01 14:10:37;;;;;;;;;;;27.70;92.00;;;;;;5107189;28;20254;-56
2022/09/01 14:13:03;;;;;;;;;;;27.80;92.10;;;;;;5106994;28;19912;-52
2022/09/01 14:15:29;;;;;;;;;;;27.80;91.90;;;;;;5106633;28;20201;-54
2022/09/01 14:17:56;;;;;;;;;;;27.80;91.80;;;;;;5105528;28;20212;-54
2022/09/01 14:20:23;;;;;;;;;;;27.80;91.30;;;;;;5107160;28;19909;-54
2022/09/01 14:22:50;;;;;;;;;;;27.80;91.70;;;;;;5106759;28;19915;-52
2022/09/01 14:25:18;;;;;;;;;;;27.80;91.80;;;;;;5107003;28;20096;-54
2022/09/01 14:27:44;;;;;;;;;;;27.90;91.70;;;;;;5106851;28;19904;-55
2022/09/01 14:30:12;;;;;;;;;;;27.90;91.70;;;;;;5106713;28;19923;-53
2022/09/01 14:32:38;;;;;;;;;;;27.90;91.80;;;;;;5106539;28;19912;-58
2022/09/01 14:35:06;;;;;;;;;;;27.90;91.90;;;;;;5106778;28;19909;-55